Bucknell, United Kingdom
Current Conditions -  °F | °C
As of 12:50 AM on Wednesday 26 Nov 2014 (Local Time) from EGOS Reporting Station
Moderate Rain Moderate Rain  
Wind Chill: 35°   Ceiling: 4600
Heat Index: 41°   Visibility: 2.1mi
Dew Point: 39°   Wind: 9mph
Humidity: 93%   Direction: 330°NNW
Pressure: 30"   Gusts: NA
Location:  52.36°N, 2.95°W
Report Text: EGOS 260050Z AUTO 33008KT 3500 RA BKN046/// 05/04 Q1016
Loading
Personal Weather Stations






























Interactive Weather Map New forecast layout! Learn more

10-Day Weather Forecast

Advertisements
Track Severe Weather on mobile